Time;durP1;ratioP1;P1;durP2;ratioP2;P2;SDS_P1;SDS_P2;PMS_P1;PMS_P2;Temp;Humidity;BMP_temperature;BMP_pressure;BME280_temperature;BME280_humidity;BME280_pressure;Samples;Min_cycle;Max_cycle;Signal;HPM_P1;HPM_P2
2022/05/20 00:00:17;;;;;;;3.00;0.90;;;;;;;14.07;34.30;101188.63;117431;1185;23997;-51
2022/05/20 00:02:46;;;;;;;2.70;1.10;;;;;;;14.01;34.48;101187.65;117308;1185;22304;-52
2022/05/20 00:05:15;;;;;;;2.00;0.80;;;;;;;13.99;34.37;101188.20;117291;1186;21848;-55
2022/05/20 00:07:43;;;;;;;2.70;1.10;;;;;;;13.95;34.31;101184.91;117367;1186;24226;-54
2022/05/20 00:10:15;;;;;;;5.50;1.20;;;;;;;13.93;34.45;101185.45;117448;1184;24156;-50
2022/05/20 00:12:44;;;;;;;2.00;0.70;;;;;;;13.93;34.49;101179.81;117311;1186;22045;-55
2022/05/20 00:15:15;;;;;;;1.60;0.60;;;;;;;13.93;34.45;101182.11;117284;1187;23463;-50
2022/05/20 00:17:44;;;;;;;2.90;0.80;;;;;;;13.90;34.48;101185.67;117423;1185;21931;-49
2022/05/20 00:20:14;;;;;;;2.50;0.90;;;;;;;13.87;34.63;101188.20;117395;1188;22902;-54
2022/05/20 00:22:42;;;;;;;2.00;0.90;;;;;;;13.82;34.44;101188.43;117361;1183;23432;-50
2022/05/20 00:28:00;;;;;;;3.00;0.70;;;;;;;13.68;34.58;101186.48;117455;1185;23541;-49
2022/05/20 00:30:29;;;;;;;6.80;1.00;;;;;;;13.62;34.47;101185.50;117407;1185;22057;-54
2022/05/20 00:32:58;;;;;;;4.70;1.30;;;;;;;13.56;34.63;101180.98;117364;1185;21879;-55
2022/05/20 00:35:26;;;;;;;2.80;0.90;;;;;;;13.53;34.59;101182.77;117446;1185;23560;-49
2022/05/20 00:37:55;;;;;;;2.90;0.90;;;;;;;13.50;34.76;101180.52;117433;1185;22931;-50
2022/05/20 00:40:25;;;;;;;1.70;1.00;;;;;;;13.47;34.71;101186.21;117346;1184;22944;-49
2022/05/20 00:43:34;;;;;;;2.50;0.90;;;;;;;13.42;34.72;101188.02;117301;1186;21858;-54
2022/05/20 00:46:17;;;;;;;1.60;0.80;;;;;;;13.36;34.73;101188.77;117330;1186;23563;-49
2022/05/20 00:48:46;;;;;;;1.90;1.10;;;;;;;13.31;34.84;101188.64;117783;1185;22992;-54
2022/05/20 00:51:27;;;;;;;2.80;1.00;;;;;;;13.24;34.65;101189.25;117528;1183;22797;-55
2022/05/20 00:53:58;;;;;;;1.20;0.70;;;;;;;13.16;34.75;101191.09;117327;1186;22642;-50
2022/05/20 00:56:29;;;;;;;;;;;;;;;13.08;34.80;101188.51;117354;1185;21830;-50
2022/05/20 00:58:57;;;;;;;;;;;;;;;13.01;34.84;101190.71;117450;1185;22903;-55
2022/05/20 01:01:26;;;;;;;1.40;0.70;;;;;;;12.94;34.70;101195.52;117510;1186;23538;-50
2022/05/20 01:03:54;;;;;;;2.50;0.90;;;;;;;12.88;34.82;101195.74;117527;1186;21884;-55
2022/05/20 01:06:23;;;;;;;1.80;0.70;;;;;;;12.80;34.98;101195.45;117334;1185;23554;-49
2022/05/20 01:08:52;;;;;;;2.90;0.90;;;;;;;12.72;34.84;101197.48;117522;1185;23538;-54
2022/05/20 01:11:20;;;;;;;2.70;1.10;;;;;;;12.64;34.86;101198.93;117534;1185;21913;-55
2022/05/20 01:13:49;;;;;;;3.50;1.40;;;;;;;12.61;34.99;101201.07;117581;1186;23538;-49
2022/05/20 01:16:17;;;;;;;2.80;0.80;;;;;;;12.57;34.99;101197.22;117579;1184;21959;-50
2022/05/20 01:18:46;;;;;;;3.10;0.90;;;;;;;12.53;35.17;101194.98;117390;1185;23544;-48
2022/05/20 01:21:15;;;;;;;2.70;0.80;;;;;;;12.48;35.04;101197.46;117365;1185;23513;-49
2022/05/20 01:23:43;;;;;;;5.90;0.90;;;;;;;12.42;35.06;101200.33;117332;1186;23544;-54
2022/05/20 01:26:11;;;;;;;1.70;0.80;;;;;;;12.35;35.08;101202.48;117390;1185;23528;-54
2022/05/20 01:28:39;;;;;;;1.90;0.80;;;;;;;12.28;35.04;101200.06;117355;1186;23545;-54
2022/05/20 01:31:13;;;;;;;2.10;1.00;;;;;;;12.23;35.22;101200.10;117354;1185;23538;-49
2022/05/20 01:33:47;;;;;;;2.70;1.00;;;;;;;12.18;35.15;101200.64;117298;1182;22161;-49
2022/05/20 01:36:24;;;;;;;2.20;1.00;;;;;;;12.16;35.13;101203.13;117329;1186;21991;-54
2022/05/20 01:38:53;;;;;;;1.60;0.90;;;;;;;12.14;35.24;101198.55;117409;1184;22941;-54
2022/05/20 01:41:34;;;;;;;2.20;1.10;;;;;;;12.13;35.55;101200.70;117435;1184;22913;-49
2022/05/20 01:44:29;;;;;;;2.00;1.00;;;;;;;12.11;35.41;101203.69;117280;1185;24194;-49
2022/05/20 01:46:58;;;;;;;2.70;1.00;;;;;;;12.12;35.50;101205.45;117409;1188;23463;-49
2022/05/20 01:49:44;;;;;;;2.40;0.90;;;;;;;12.14;35.59;101203.48;117480;1185;23531;-54
2022/05/20 01:52:21;;;;;;;3.70;1.00;;;;;;;12.15;35.61;101201.02;117417;1185;22911;-49
2022/05/20 01:55:00;;;;;;;2.20;1.00;;;;;;;12.16;35.64;101199.95;117536;1185;24699;-49
2022/05/20 01:57:31;;;;;;;1.40;0.80;;;;;;;12.19;35.66;101198.36;117384;1185;21863;-54
2022/05/20 02:00:23;;;;;;;1.90;0.90;;;;;;;12.20;35.79;101198.17;117347;1186;21926;-49
2022/05/20 02:03:19;;;;;;;8.20;1.20;;;;;;;12.22;35.79;101194.30;117490;1185;21851;-49
2022/05/20 02:05:48;;;;;;;2.30;1.20;;;;;;;12.22;35.72;101195.52;117499;1185;23547;-55
2022/05/20 02:08:19;;;;;;;3.30;1.00;;;;;;;12.24;35.75;101194.48;117610;1184;22954;-54
2022/05/20 02:11:04;;;;;;;3.30;1.20;;;;;;;12.25;35.94;101197.10;117375;1185;23567;-54
2022/05/20 02:13:47;;;;;;;4.70;1.50;;;;;;;12.25;35.91;101193.75;117326;1185;23637;-54
2022/05/20 02:16:18;;;;;;;4.30;1.50;;;;;;;12.23;35.85;101191.30;117364;1185;23541;-55
2022/05/20 02:18:52;;;;;;;3.70;1.20;;;;;;;12.22;35.85;101188.13;117338;1185;21863;-54
2022/05/20 02:21:23;;;;;;;3.00;1.00;;;;;;;12.20;35.97;101187.63;117371;1185;23586;-49
2022/05/20 02:23:53;;;;;;;;;;;;;;;12.17;35.94;101193.08;117322;1185;22585;-49
2022/05/20 02:26:24;;;;;;;2.70;1.20;;;;;;;12.14;35.81;101201.20;117326;1186;23570;-54
2022/05/20 02:29:01;;;;;;;4.60;1.40;;;;;;;12.09;36.01;101199.83;117316;1186;23545;-54
2022/05/20 02:31:46;;;;;;;5.40;1.10;;;;;;;12.06;36.06;101201.43;117372;1185;21840;-54
2022/05/20 02:34:14;;;;;;;4.40;0.90;;;;;;;12.05;36.03;101208.46;117319;1186;23555;-54
2022/05/20 02:36:43;;;;;;;2.10;1.10;;;;;;;12.05;36.04;101209.87;117432;1185;22989;-54
2022/05/20 02:39:17;;;;;;;2.90;1.20;;;;;;;12.03;36.15;101211.47;117356;1185;21858;-48
2022/05/20 02:41:47;;;;;;;5.70;1.30;;;;;;;12.02;36.21;101210.95;117340;1186;23640;-49
2022/05/20 02:44:16;;;;;;;4.20;1.00;;;;;;;12.02;36.12;101214.11;117361;1186;21857;-54
2022/05/20 02:46:46;;;;;;;2.20;0.90;;;;;;;12.04;36.18;101208.98;117325;1184;21851;-49
2022/05/20 02:49:14;;;;;;;3.40;1.10;;;;;;;12.06;36.26;101209.00;117445;1187;23538;-54
2022/05/20 02:51:42;;;;;;;2.70;1.00;;;;;;;12.10;36.38;101209.85;117572;1186;23022;-49
2022/05/20 02:54:11;;;;;;;2.50;1.30;;;;;;;12.13;36.36;101206.85;117503;1185;23537;-54
2022/05/20 02:56:40;;;;;;;3.70;1.20;;;;;;;12.18;36.35;101208.38;117366;1186;23543;-49
2022/05/20 03:04:48;;;;;;;4.40;1.00;;;;;;;12.33;36.67;101210.08;117112;1188;22615;-56
2022/05/20 03:07:16;;;;;;;3.60;1.50;;;;;;;12.38;36.51;101212.84;117491;1185;22806;-55
2022/05/20 03:09:45;;;;;;;2.00;0.80;;;;;;;12.41;36.60;101210.19;117530;1186;22819;-55
2022/05/20 03:12:14;;;;;;;3.00;0.90;;;;;;;12.46;36.59;101211.04;117460;1185;23537;-55
2022/05/20 03:14:44;;;;;;;4.30;1.10;;;;;;;12.52;36.80;101210.48;117388;1184;21850;-56
2022/05/20 03:17:12;;;;;;;3.50;1.10;;;;;;;12.58;36.72;101204.80;117497;1185;23525;-56
2022/05/20 03:19:40;;;;;;;2.90;1.50;;;;;;;12.63;36.80;101204.92;117452;1185;23551;-56
2022/05/20 03:22:09;;;;;;;2.50;0.90;;;;;;;12.71;36.96;101204.88;117503;1185;23649;-55
2022/05/20 03:24:39;;;;;;;3.50;1.30;;;;;;;12.79;36.90;101203.58;117380;1185;22819;-56
2022/05/20 03:27:07;;;;;;;2.20;1.10;;;;;;;12.88;36.97;101202.27;117529;1182;21837;-56
2022/05/20 03:29:35;;;;;;;2.90;1.70;;;;;;;12.98;37.06;101205.00;117501;1186;23531;-55
2022/05/20 03:32:08;;;;;;;4.00;0.90;;;;;;;13.12;37.14;101207.15;117414;1185;24172;-51
2022/05/20 03:34:38;;;;;;;3.50;1.10;;;;;;;13.28;37.27;101207.18;117630;1185;21853;-51
2022/05/20 03:37:08;;;;;;;2.50;1.00;;;;;;;13.40;37.19;101210.42;117535;1185;21854;-51
2022/05/20 03:39:36;;;;;;;2.10;0.90;;;;;;;13.55;37.21;101210.09;117388;1185;21852;-51
2022/05/20 03:42:05;;;;;;;3.80;1.00;;;;;;;13.69;37.35;101211.00;117381;1186;24178;-55
2022/05/20 03:44:34;;;;;;;3.20;1.20;;;;;;;13.80;37.28;101211.92;117344;1185;21853;-54
2022/05/20 03:47:03;;;;;;;3.10;1.00;;;;;;;13.88;37.39;101217.48;117373;1185;23615;-49
2022/05/20 03:49:32;;;;;;;2.80;0.80;;;;;;;13.97;37.33;101215.23;117367;1180;22030;-55
2022/05/20 03:52:00;;;;;;;8.20;1.40;;;;;;;14.11;37.39;101211.34;117388;1184;21843;-55
2022/05/20 03:54:31;;;;;;;1.90;1.10;;;;;;;14.27;37.52;101213.60;117411;1185;24162;-51
2022/05/20 03:57:02;;;;;;;2.50;0.80;;;;;;;14.43;37.49;101210.35;117376;1185;24288;-54
2022/05/20 03:59:35;;;;;;;3.90;1.00;;;;;;;14.60;37.48;101210.64;117385;1186;23714;-54
2022/05/20 04:02:06;;;;;;;2.10;0.80;;;;;;;14.74;37.54;101211.67;117326;1185;23467;-50
2022/05/20 04:04:35;;;;;;;;;;;;;;;14.89;37.58;101214.61;117367;1185;21846;-55
2022/05/20 04:07:07;;;;;;;3.00;1.00;;;;;;;15.04;37.70;101216.30;117525;1184;23534;-52
2022/05/20 04:09:55;;;;;;;2.50;1.00;;;;;;;15.22;37.59;101219.68;117381;1186;21889;-52
2022/05/20 04:12:30;;;;;;;5.10;1.10;;;;;;;15.37;37.59;101219.06;117356;1186;24145;-52
2022/05/20 04:14:59;;;;;;;5.10;1.00;;;;;;;15.53;37.68;101215.73;117423;1185;21825;-52
2022/05/20 04:17:28;;;;;;;2.50;1.10;;;;;;;15.72;37.71;101219.96;117531;1183;21851;-51
2022/05/20 04:19:57;;;;;;;2.00;1.00;;;;;;;15.94;37.68;101222.38;117383;1185;24162;-57
2022/05/20 04:22:31;;;;;;;1.90;0.90;;;;;;;16.16;37.74;101219.08;117385;1185;23820;-50
2022/05/20 04:24:59;;;;;;;5.50;1.10;;;;;;;16.38;37.79;101219.11;117433;1185;22917;-50
2022/05/20 04:27:28;;;;;;;1.70;0.80;;;;;;;16.55;37.59;101215.89;117462;1186;23461;-54
2022/05/20 04:29:57;;;;;;;1.40;0.70;;;;;;;16.73;37.70;101213.31;117464;1185;22617;-51
2022/05/20 04:32:25;;;;;;;2.20;1.00;;;;;;;16.91;37.61;101214.65;117360;1186;21908;-56
2022/05/20 04:34:53;;;;;;;4.50;1.10;;;;;;;17.12;37.70;101218.04;117421;1185;22950;-56
2022/05/20 04:37:27;;;;;;;4.20;1.20;;;;;;;17.36;37.67;101216.01;117389;1185;23465;-56
2022/05/20 04:39:56;;;;;;;;;;;;;;;17.60;37.66;101217.13;117397;1185;23556;-52
2022/05/20 04:48:02;;;;;;;7.10;1.10;;;;;;;18.26;37.53;101220.90;117345;1185;23605;-52
2022/05/20 04:50:30;;;;;;;1.80;0.80;;;;;;;18.47;37.34;101219.88;117308;1185;24163;-53
2022/05/20 04:53:05;;;;;;;3.20;1.10;;;;;;;18.67;37.30;101216.94;117424;1186;23541;-55
2022/05/20 04:55:34;;;;;;;4.60;1.00;;;;;;;18.87;37.31;101209.86;117369;1185;24137;-55
2022/05/20 04:58:04;;;;;;;3.00;1.10;;;;;;;19.10;37.25;101211.07;117477;1186;21862;-56
2022/05/20 05:00:33;;;;;;;1.90;0.90;;;;;;;19.30;37.16;101208.08;117351;1185;23550;-56
2022/05/20 05:03:02;;;;;;;1.60;1.00;;;;;;;19.53;37.18;101207.96;117402;1186;21845;-54
2022/05/20 05:05:32;;;;;;;4.10;1.10;;;;;;;19.82;37.15;101208.33;117492;1185;23458;-57
2022/05/20 05:08:02;;;;;;;3.70;1.00;;;;;;;20.09;37.04;101209.64;117329;1185;23015;-54
2022/05/20 05:10:31;;;;;;;4.10;1.20;;;;;;;20.35;36.98;101210.56;117415;1185;24159;-56
2022/05/20 05:13:00;;;;;;;3.60;1.20;;;;;;;20.57;36.83;101210.91;117444;1185;22363;-57
2022/05/20 05:15:28;;;;;;;5.20;1.10;;;;;;;20.76;36.81;101209.80;117426;1180;22911;-54
2022/05/20 05:18:21;;;;;;;10.90;1.80;;;;;;;20.95;36.71;101208.86;117433;1185;22973;-55
2022/05/20 05:20:51;;;;;;;3.00;1.00;;;;;;;21.14;36.55;101210.02;117378;1189;22066;-55
2022/05/20 05:23:20;;;;;;;4.60;1.30;;;;;;;21.31;36.36;101213.73;117414;1185;22157;-54
2022/05/20 05:25:48;;;;;;;3.10;1.20;;;;;;;21.50;36.24;101212.91;117410;1185;24287;-53
2022/05/20 05:28:18;;;;;;;2.10;0.90;;;;;;;21.68;36.07;101204.78;117418;1186;22329;-54
2022/05/20 05:30:50;;;;;;;1.60;0.90;;;;;;;21.83;35.95;101205.71;117419;1185;23801;-55
2022/05/20 05:33:19;;;;;;;2.60;0.90;;;;;;;21.97;36.02;101205.05;117411;1183;21858;-54
2022/05/20 05:35:47;;;;;;;3.60;1.00;;;;;;;22.15;35.77;101203.86;117377;1180;22981;-55
2022/05/20 05:38:20;;;;;;;4.30;0.80;;;;;;;22.38;35.72;101202.08;117525;1185;21894;-56
2022/05/20 05:40:49;;;;;;;7.40;1.10;;;;;;;22.60;35.55;101201.89;117565;1184;23435;-54
2022/05/20 05:43:17;;;;;;;3.20;1.20;;;;;;;22.78;35.49;101200.27;117399;1185;21840;-56
2022/05/20 05:45:46;;;;;;;2.30;1.00;;;;;;;22.89;35.20;101198.50;117425;1182;22886;-56
2022/05/20 05:48:17;;;;;;;6.40;1.10;;;;;;;23.00;35.18;101193.10;117557;1186;22832;-53
2022/05/20 05:50:46;;;;;;;4.00;1.40;;;;;;;23.11;35.02;101194.52;117503;1186;23585;-57
2022/05/20 05:53:16;;;;;;;2.60;1.20;;;;;;;23.18;34.72;101194.85;117391;1185;23557;-54
2022/05/20 05:55:46;;;;;;;2.20;1.00;;;;;;;23.24;34.57;101196.88;117447;1184;23966;-54
2022/05/20 05:58:14;;;;;;;3.50;0.80;;;;;;;23.34;34.48;101195.30;117496;1185;22914;-53
2022/05/20 06:00:43;;;;;;;4.60;1.60;;;;;;;23.51;34.35;101193.33;117448;1186;21892;-55
2022/05/20 06:03:14;;;;;;;2.30;1.30;;;;;;;23.73;34.41;101187.50;117422;1185;21858;-56
2022/05/20 06:05:44;;;;;;;4.20;0.90;;;;;;;23.89;34.11;101184.30;117545;1186;23550;-56
2022/05/20 06:08:12;;;;;;;3.50;1.30;;;;;;;24.02;33.94;101180.38;117515;1183;21861;-55
2022/05/20 06:10:42;;;;;;;4.10;1.80;;;;;;;24.19;33.97;101177.11;117369;1186;21853;-55
2022/05/20 06:13:10;;;;;;;2.20;0.90;;;;;;;24.32;33.69;101180.63;117417;1185;22982;-55
2022/05/20 06:15:39;;;;;;;2.50;0.90;;;;;;;24.44;33.44;101177.05;117469;1186;23668;-58
2022/05/20 06:18:08;;;;;;;5.30;1.30;;;;;;;24.58;33.46;101178.80;117449;1186;23462;-56
2022/05/20 06:20:37;;;;;;;4.00;1.40;;;;;;;24.73;33.45;101181.32;117379;1185;23557;-55
2022/05/20 06:23:05;;;;;;;5.20;1.20;;;;;;;24.86;33.35;101182.77;117504;1185;23430;-57
2022/05/20 06:25:34;;;;;;;3.30;1.20;;;;;;;25.01;33.40;101181.86;117528;1186;21852;-55
2022/05/20 06:28:07;;;;;;;5.20;1.00;;;;;;;25.12;33.19;101179.91;117435;1184;23567;-56
2022/05/20 06:30:36;;;;;;;3.60;1.10;;;;;;;25.13;32.87;101181.46;117273;1186;23541;-56
2022/05/20 06:33:05;;;;;;;7.70;1.70;;;;;;;25.18;32.82;101183.35;117528;1185;21970;-57
2022/05/20 06:41:09;;;;;;;3.90;1.10;;;;;;;25.41;32.46;101190.55;117354;1184;22802;-54
2022/05/20 06:43:39;;;;;;;4.40;1.00;;;;;;;25.50;32.39;101189.66;117100;1182;23576;-55
2022/05/20 06:46:10;;;;;;;2.20;1.20;;;;;;;25.62;32.32;101187.87;117327;1185;21852;-57
2022/05/20 06:48:55;;;;;;;2.50;0.90;;;;;;;25.74;32.29;101196.44;117222;1186;23859;-56
2022/05/20 06:51:33;;;;;;;4.10;1.10;;;;;;;25.87;32.27;101198.12;117579;1186;24165;-56
2022/05/20 06:54:03;;;;;;;3.00;1.10;;;;;;;26.07;32.28;101200.29;117440;1185;21840;-57
2022/05/20 06:56:32;;;;;;;3.40;1.60;;;;;;;26.23;32.18;101200.02;117239;1185;21963;-55
2022/05/20 06:59:00;;;;;;;3.00;1.10;;;;;;;26.26;31.87;101197.80;117342;1186;23544;-56
2022/05/20 07:01:29;;;;;;;6.30;1.50;;;;;;;26.32;31.60;101191.11;117339;1186;21868;-57
2022/05/20 07:04:01;;;;;;;4.80;1.50;;;;;;;26.45;31.63;101193.68;117319;1186;23465;-56
2022/05/20 07:06:32;;;;;;;3.30;1.10;;;;;;;26.51;31.51;101194.58;117363;1185;23599;-57
2022/05/20 07:09:01;;;;;;;3.60;1.20;;;;;;;26.58;31.34;101191.59;117350;1185;21925;-55
2022/05/20 07:11:29;;;;;;;4.90;1.30;;;;;;;26.69;31.37;101194.22;117374;1185;21868;-57
2022/05/20 07:13:59;;;;;;;4.30;1.30;;;;;;;26.73;31.23;101192.02;117357;1186;23608;-55
2022/05/20 07:16:29;;;;;;;5.70;1.50;;;;;;;26.80;31.31;101191.17;117333;1186;23545;-56
2022/05/20 07:18:57;;;;;;;1.80;1.20;;;;;;;26.92;31.20;101192.77;117308;1186;21923;-56
2022/05/20 07:21:26;;;;;;;2.90;0.90;;;;;;;27.09;31.18;101195.91;117360;1185;23567;-56
2022/05/20 07:23:55;;;;;;;1.90;1.00;;;;;;;27.26;31.06;101194.91;117367;1186;24842;-57
2022/05/20 07:26:24;;;;;;;3.10;1.00;;;;;;;27.37;31.12;101197.38;117567;1185;23624;-57
2022/05/20 07:28:53;;;;;;;2.40;1.30;;;;;;;27.38;30.77;101200.20;117485;1184;22854;-56
2022/05/20 07:31:24;;;;;;;2.30;1.10;;;;;;;27.32;30.71;101193.92;117454;1186;21839;-57
2022/05/20 07:33:53;;;;;;;2.80;1.30;;;;;;;27.41;30.75;101193.15;117373;1185;21845;-56
2022/05/20 07:36:22;;;;;;;3.10;1.10;;;;;;;27.54;30.85;101190.23;117470;1184;23560;-55
2022/05/20 07:38:51;;;;;;;3.40;1.00;;;;;;;27.76;30.63;101187.23;117553;1184;21858;-55
2022/05/20 07:41:22;;;;;;;2.90;1.20;;;;;;;27.89;30.35;101185.98;117456;1186;21893;-55
2022/05/20 07:43:50;;;;;;;9.10;1.30;;;;;;;27.94;30.31;101187.94;117471;1185;23635;-56
2022/05/20 07:46:19;;;;;;;3.60;1.10;;;;;;;27.95;30.02;101186.79;117464;1186;24159;-57
2022/05/20 07:48:48;;;;;;;2.30;1.30;;;;;;;28.04;30.16;101185.39;117464;1185;22905;-55
2022/05/20 07:51:18;;;;;;;2.70;1.20;;;;;;;28.19;30.21;101181.48;117500;1182;23553;-56
2022/05/20 07:53:52;;;;;;;2.70;0.90;;;;;;;28.29;29.96;101179.98;117499;1185;24198;-56
2022/05/20 07:56:27;;;;;;;3.70;1.10;;;;;;;28.39;29.93;101177.98;117510;1185;21849;-56
2022/05/20 07:59:10;;;;;;;2.60;0.90;;;;;;;28.53;30.09;101177.67;117517;1185;23590;-55
2022/05/20 08:01:41;;;;;;;1.60;0.80;;;;;;;28.66;30.04;101176.88;117406;1185;22912;-55
2022/05/20 08:07:05;;;;;;;2.20;1.10;;;;;;;28.79;29.76;101177.92;117333;1185;23540;-56
2022/05/20 08:09:34;;;;;;;1.90;1.10;;;;;;;28.90;29.74;101180.90;117270;1185;24163;-56
2022/05/20 08:12:04;;;;;;;2.80;1.30;;;;;;;29.09;29.58;101179.92;117359;1185;22649;-56
2022/05/20 08:14:42;;;;;;;4.40;1.00;;;;;;;29.26;29.41;101178.57;117332;1185;22838;-55
2022/05/20 08:17:10;;;;;;;2.40;1.00;;;;;;;29.25;29.07;101175.04;117277;1186;23566;-56
2022/05/20 08:19:38;;;;;;;5.60;1.00;;;;;;;29.30;29.31;101173.80;117365;1180;23560;-57
2022/05/20 08:22:06;;;;;;;3.10;1.00;;;;;;;29.45;29.19;101175.10;117336;1185;23542;-57
2022/05/20 08:24:36;;;;;;;5.90;1.20;;;;;;;29.63;28.93;101174.44;117287;1185;21863;-57
2022/05/20 08:27:05;;;;;;;5.40;1.70;;;;;;;29.77;28.88;101171.02;117391;1186;22986;-55
2022/05/20 08:29:34;;;;;;;4.80;1.20;;;;;;;29.92;29.02;101164.50;117467;1185;22917;-56
2022/05/20 08:32:03;;;;;;;3.60;1.00;;;;;;;30.07;28.83;101161.88;117306;1186;23563;-57
2022/05/20 08:34:32;;;;;;;6.90;1.50;;;;;;;30.06;28.69;101164.69;117378;1186;21852;-56
2022/05/20 08:37:03;;;;;;;4.10;1.00;;;;;;;30.09;28.61;101160.83;117385;1185;21857;-57
2022/05/20 08:39:33;;;;;;;3.00;0.80;;;;;;;30.18;28.43;101154.41;117399;1185;21880;-56
2022/05/20 08:42:02;;;;;;;4.00;1.10;;;;;;;30.42;28.60;101147.16;117325;1186;21852;-56
2022/05/20 08:44:30;;;;;;;1.60;1.00;;;;;;;30.64;28.46;101144.13;117324;1186;22330;-57
2022/05/20 08:47:27;;;;;;;3.00;1.10;;;;;;;30.73;28.30;101145.50;117142;1187;24165;-55
2022/05/20 08:49:58;;;;;;;3.70;0.90;;;;;;;30.72;28.29;101139.81;117443;1185;23589;-57
2022/05/20 08:52:32;;;;;;;0.70;0.70;;;;;;;30.82;28.02;101140.16;117190;1186;22654;-56
2022/05/20 08:55:01;;;;;;;4.30;1.30;;;;;;;30.77;27.85;101139.69;117378;1185;21864;-56
2022/05/20 08:57:40;;;;;;;1.70;1.00;;;;;;;30.63;27.81;101140.04;117352;1185;23544;-56
2022/05/20 09:00:09;;;;;;;4.60;1.00;;;;;;;30.55;27.92;101138.47;117326;1185;22996;-57
2022/05/20 09:02:38;;;;;;;2.60;1.20;;;;;;;30.52;27.78;101140.52;117310;1183;21848;-56
2022/05/20 09:05:31;;;;;;;11.50;3.10;;;;;;;30.42;27.63;101136.33;117237;1183;21856;-56
2022/05/20 09:08:18;;;;;;;7.60;2.40;;;;;;;30.33;27.47;101137.45;117403;1186;22032;-56
2022/05/20 09:10:49;;;;;;;5.50;1.70;;;;;;;30.35;27.40;101130.61;117288;1186;22930;-56
2022/05/20 09:16:23;;;;;;;3.10;1.20;;;;;;;30.59;27.55;101118.99;118606;1185;22916;-56
2022/05/20 09:19:14;;;;;;;2.90;1.20;;;;;;;30.74;27.48;101122.92;117488;1186;21862;-56
2022/05/20 09:22:21;;;;;;;5.90;1.30;;;;;;;31.01;27.42;101114.70;117275;1186;23560;-56
2022/05/20 09:24:50;;;;;;;2.30;0.80;;;;;;;31.27;27.17;101102.27;117285;1186;22644;-56
2022/05/20 09:27:26;;;;;;;1.70;0.80;;;;;;;31.49;27.28;101099.79;117403;1184;21842;-56
2022/05/20 09:30:05;;;;;;;3.40;0.80;;;;;;;31.68;27.10;101099.02;117356;1186;24182;-56
2022/05/20 09:32:44;;;;;;;3.10;1.00;;;;;;;31.87;27.09;101097.44;117330;1185;21855;-55
2022/05/20 09:35:20;;;;;;;2.30;0.90;;;;;;;32.05;26.87;101095.10;118528;1186;21843;-56
2022/05/20 09:37:52;;;;;;;2.10;0.90;;;;;;;32.26;26.97;101090.64;117341;1186;21842;-56
2022/05/20 09:40:31;;;;;;;4.10;1.00;;;;;;;32.35;26.89;101087.08;117378;1186;21893;-56
2022/05/20 09:43:32;;;;;;;3.20;1.10;;;;;;;32.42;26.54;101083.40;117276;1181;22644;-56
2022/05/20 09:46:01;;;;;;;2.70;1.10;;;;;;;32.56;26.43;101072.05;117256;1186;21852;-56
2022/05/20 09:48:55;;;;;;;1.60;0.90;;;;;;;32.75;26.54;101068.39;117307;1185;21878;-55
2022/05/20 09:51:46;;;;;;;3.00;1.10;;;;;;;32.98;26.60;101067.67;117341;1185;21847;-57
2022/05/20 09:54:20;;;;;;;;;;;;;;;33.25;26.57;101060.05;117343;1188;22921;-58
2022/05/20 09:57:03;;;;;;;3.20;0.70;;;;;;;33.38;26.33;101059.13;117289;1184;22999;-57
2022/05/20 09:59:54;;;;;;;2.00;1.10;;;;;;;33.34;26.01;101054.75;117386;1185;22912;-57
2022/05/20 10:02:24;;;;;;;4.70;1.20;;;;;;;33.28;25.77;101048.42;117460;1179;23366;-54
2022/05/20 10:05:19;;;;;;;2.20;0.80;;;;;;;33.18;25.82;101048.14;117307;1186;23541;-57
2022/05/20 10:08:03;;;;;;;1.40;0.90;;;;;;;33.17;25.65;101044.09;117395;1185;22652;-55
2022/05/20 10:10:40;;;;;;;4.00;1.10;;;;;;;33.33;25.76;101042.66;117287;1184;22122;-56
2022/05/20 10:13:24;;;;;;;3.00;1.00;;;;;;;33.39;25.64;101036.66;117283;1184;23564;-56
2022/05/20 10:16:03;;;;;;;1.40;1.00;;;;;;;33.38;25.63;101036.40;117307;1185;22835;-56
2022/05/20 10:18:41;;;;;;;2.10;1.20;;;;;;;33.41;25.59;101033.88;117384;1185;22921;-57
2022/05/20 10:21:33;;;;;;;2.30;1.10;;;;;;;33.31;25.42;101027.30;117364;1185;23579;-59
2022/05/20 10:24:38;;;;;;;4.40;0.90;;;;;;;33.43;25.49;101024.82;117327;1185;21843;-57
2022/05/20 10:27:13;;;;;;;3.30;1.10;;;;;;;33.73;25.42;101018.95;117497;1184;23123;-56
2022/05/20 10:33:01;;;;;;;6.90;1.00;;;;;;;33.95;25.12;101015.13;117803;1184;23561;-57
2022/05/20 10:35:35;;;;;;;5.70;1.10;;;;;;;34.15;25.16;101010.48;117306;1185;23545;-56
2022/05/20 10:38:12;;;;;;;3.70;0.90;;;;;;;34.50;25.12;101006.37;117347;1185;23699;-58
2022/05/20 10:41:00;;;;;;;2.70;1.00;;;;;;;34.57;24.89;101007.14;117298;1186;23570;-57
2022/05/20 10:50:14;;;;;;;7.20;1.30;;;;;;;33.91;24.68;100992.19;117334;1186;24165;-55
2022/05/20 10:52:59;;;;;;;5.30;0.90;;;;;;;33.98;24.64;100994.76;117151;1182;23603;-55
2022/05/20 10:55:48;;;;;;;3.70;1.20;;;;;;;33.97;24.52;100992.90;117324;1186;24160;-55
2022/05/20 10:58:38;;;;;;;1.40;0.90;;;;;;;34.15;24.67;100986.69;117331;1185;21852;-57
2022/05/20 11:01:28;;;;;;;3.80;1.10;;;;;;;34.20;24.52;100983.02;117292;1186;21858;-56
2022/05/20 11:04:15;;;;;;;;;;;;;;;34.34;24.47;100972.17;117384;1186;24139;-56
2022/05/20 11:07:18;;;;;;;6.20;1.00;;;;;;;34.52;24.18;100971.90;117411;1180;23567;-56
2022/05/20 11:09:49;;;;;;;2.30;0.90;;;;;;;34.68;24.08;100971.12;117398;1185;23544;-57
2022/05/20 11:12:26;;;;;;;2.90;1.30;;;;;;;34.76;23.91;100969.23;117370;1185;21863;-57
2022/05/20 11:15:06;;;;;;;5.50;0.80;;;;;;;34.83;24.25;100969.35;117315;1185;23572;-57
2022/05/20 11:17:40;;;;;;;4.50;0.90;;;;;;;34.99;24.13;100967.38;117369;1186;22889;-56
2022/05/20 11:20:24;;;;;;;2.10;0.90;;;;;;;35.03;23.96;100959.67;117308;1186;22775;-57
2022/05/20 11:23:00;;;;;;;3.80;1.10;;;;;;;35.05;23.89;100956.69;117440;1186;22838;-56
2022/05/20 11:25:58;;;;;;;7.50;1.20;;;;;;;34.92;23.54;100951.83;117351;1186;21858;-55
2022/05/20 11:28:33;;;;;;;3.20;0.80;;;;;;;34.72;23.30;100946.27;117275;1186;22836;-56
2022/05/20 11:31:23;;;;;;;3.80;1.00;;;;;;;34.63;23.13;100944.39;117430;1185;23620;-57
2022/05/20 11:34:05;;;;;;;3.70;1.10;;;;;;;34.68;23.45;100943.24;117285;1185;22818;-55
2022/05/20 11:36:56;;;;;;;2.40;1.00;;;;;;;34.75;23.32;100945.66;117377;1185;22910;-57
2022/05/20 11:39:49;;;;;;;6.10;1.40;;;;;;;34.62;23.14;100946.61;117322;1185;21898;-57
2022/05/20 11:42:28;;;;;;;4.50;0.90;;;;;;;34.67;23.15;100939.23;117502;1185;21847;-57
2022/05/20 11:45:09;;;;;;;;;;;;;;;34.86;23.26;100930.13;117363;1185;21874;-56
2022/05/20 11:47:53;;;;;;;6.60;0.80;;;;;;;34.97;23.11;100925.77;117305;1185;22901;-57
2022/05/20 11:51:00;;;;;;;2.40;1.10;;;;;;;34.97;22.89;100922.89;117356;1184;21850;-56
2022/05/20 11:53:34;;;;;;;2.60;1.00;;;;;;;34.88;22.77;100922.34;117281;1186;22931;-56
2022/05/20 11:56:07;;;;;;;1.60;0.70;;;;;;;34.84;22.81;100918.42;117336;1186;22905;-56
2022/05/20 11:58:40;;;;;;;3.20;0.80;;;;;;;34.91;22.63;100909.66;117319;1180;23449;-56
2022/05/20 12:01:09;;;;;;;1.20;0.80;;;;;;;35.03;22.91;100906.78;117321;1186;22624;-57
2022/05/20 12:06:25;;;;;;;2.10;1.00;;;;;;;34.92;22.36;100907.70;117275;1186;23816;-58
2022/05/20 12:08:58;;;;;;;2.10;0.90;;;;;;;34.78;22.56;100907.64;118371;1185;23435;-55
2022/05/20 12:11:29;;;;;;;2.30;0.90;;;;;;;34.78;22.38;100902.46;117178;1186;24166;-58
2022/05/20 12:14:13;;;;;;;5.10;1.10;;;;;;;34.78;22.33;100898.08;117310;1186;21857;-57
2022/05/20 12:17:03;;;;;;;2.50;1.00;;;;;;;34.84;22.35;100893.14;117339;1185;23654;-57
2022/05/20 12:25:39;;;;;;;2.50;0.80;;;;;;;34.70;22.12;100880.39;117354;1185;23531;-56
2022/05/20 12:28:08;;;;;;;1.60;0.90;;;;;;;34.95;22.32;100878.23;117205;1186;23549;-56
2022/05/20 12:30:42;;;;;;;4.60;0.90;;;;;;;35.18;22.24;100870.98;117343;1186;23082;-56
2022/05/20 12:33:27;;;;;;;6.20;1.00;;;;;;;35.26;21.95;100871.44;117332;1186;22721;-56